Time;durP1;ratioP1;P1;durP2;ratioP2;P2;SDS_P1;SDS_P2;PMS_P1;PMS_P2;Temp;Humidity;BMP_temperature;BMP_pressure;BME280_temperature;BME280_humidity;BME280_pressure;Samples;Min_cycle;Max_cycle;Signal;HPM_P1;HPM_P2
2022/11/10 00:02:32;;;;;;;8.40;3.42;;;12.60;99.90;;;;;;5049022;28;20029;-64
2022/11/10 00:05:18;;;;;;;7.32;3.72;;;12.50;99.90;;;;;;5030747;28;20124;-64
2022/11/10 00:08:05;;;;;;;8.30;3.65;;;12.50;99.90;;;;;;5034709;28;20029;-62
2022/11/10 00:10:57;;;;;;;7.90;3.35;;;12.50;99.90;;;;;;5014907;28;20025;-64
2022/11/10 00:17:03;;;;;;;5.47;3.30;;;12.40;99.90;;;;;;5048207;28;20028;-62
2022/11/10 00:19:51;;;;;;;12.02;3.90;;;12.30;99.90;;;;;;5032871;28;20041;-62
2022/11/10 00:22:39;;;;;;;9.73;3.72;;;12.20;99.90;;;;;;5049102;28;20430;-61
2022/11/10 00:25:26;;;;;;;6.70;3.70;;;12.20;99.90;;;;;;5032874;28;20127;-63
2022/11/10 00:28:12;;;;;;;6.53;3.30;;;12.10;99.90;;;;;;5047237;28;20464;-61
2022/11/10 00:30:58;;;;;;;6.95;3.20;;;12.10;99.90;;;;;;5034404;28;20031;-61
2022/11/10 00:33:44;;;;;;;6.35;3.50;;;12.00;99.90;;;;;;5048590;28;20443;-63
2022/11/10 00:36:35;;;;;;;7.72;3.40;;;12.00;99.90;;;;;;5034715;28;20033;-61
2022/11/10 00:39:21;;;;;;;8.68;3.50;;;12.10;99.90;;;;;;5049188;28;20533;-63
2022/11/10 00:42:07;;;;;;;6.00;3.83;;;12.00;99.90;;;;;;5049202;28;20051;-61
2022/11/10 00:44:58;;;;;;;7.85;4.15;;;12.00;99.90;;;;;;5049173;28;20037;-64
2022/11/10 00:47:45;;;;;;;7.80;3.40;;;12.00;99.90;;;;;;5028002;28;20120;-62
2022/11/10 00:50:31;;;;;;;8.57;3.58;;;12.00;99.90;;;;;;5029377;28;20037;-62
2022/11/10 00:53:17;;;;;;;8.38;4.00;;;12.00;99.90;;;;;;5047852;28;20025;-62
2022/11/10 00:56:03;;;;;;;6.95;3.63;;;12.00;99.90;;;;;;5050967;28;20443;-62
2022/11/10 00:58:49;;;;;;;7.53;3.67;;;11.90;99.90;;;;;;5051953;28;20060;-65
2022/11/10 01:01:35;;;;;;;7.70;3.42;;;11.90;99.90;;;;;;5052088;28;20033;-64
2022/11/10 01:04:20;;;;;;;8.88;3.72;;;12.00;99.90;;;;;;5051770;28;20044;-61
2022/11/10 01:07:06;;;;;;;7.78;3.63;;;12.00;99.90;;;;;;5051463;28;20086;-61
2022/11/10 01:09:52;;;;;;;7.78;3.42;;;12.00;99.90;;;;;;5051640;28;20174;-62
2022/11/10 01:12:41;;;;;;;6.68;3.58;;;11.90;99.90;;;;;;5038287;28;20033;-63
2022/11/10 01:15:27;;;;;;;5.30;3.22;;;11.80;99.90;;;;;;5051914;28;20112;-61
2022/11/10 01:18:18;;;;;;;7.25;3.20;;;11.80;99.90;;;;;;5031473;28;20116;-61
2022/11/10 01:21:05;;;;;;;7.45;3.28;;;11.80;99.90;;;;;;5033536;28;20033;-62
2022/11/10 01:23:51;;;;;;;5.97;2.97;;;11.70;99.90;;;;;;5051938;28;20032;-61
2022/11/10 01:26:37;;;;;;;7.50;3.30;;;11.70;99.90;;;;;;5018363;28;20486;-62
2022/11/10 01:29:23;;;;;;;11.52;4.25;;;11.70;99.90;;;;;;5042541;28;20032;-61
2022/11/10 01:32:08;;;;;;;9.52;3.60;;;11.60;99.90;;;;;;5023378;28;20501;-63
2022/11/10 01:34:56;;;;;;;9.00;3.80;;;11.60;99.90;;;;;;5037849;28;20545;-64
2022/11/10 01:37:42;;;;;;;9.15;3.60;;;11.50;99.90;;;;;;5023602;28;20146;-63
2022/11/10 01:40:27;;;;;;;8.65;3.40;;;11.50;99.90;;;;;;5037845;28;20056;-62
2022/11/10 01:43:14;;;;;;;6.45;3.20;;;11.40;99.90;;;;;;5051588;28;20041;-62
2022/11/10 01:46:05;;;;;;;8.82;3.15;;;11.40;99.90;;;;;;5037639;28;20527;-61
2022/11/10 01:49:00;;;;;;;6.20;3.42;;;11.40;99.90;;;;;;5050613;28;20056;-62
2022/11/10 01:51:52;;;;;;;6.03;3.65;;;11.40;99.90;;;;;;5051733;28;20489;-61
2022/11/10 01:54:42;;;;;;;8.82;3.72;;;11.40;99.90;;;;;;5050732;28;20033;-61
2022/11/10 01:57:30;;;;;;;8.20;3.90;;;11.50;99.90;;;;;;5051056;28;20139;-61
2022/11/10 02:00:18;;;;;;;8.65;3.38;;;11.40;99.90;;;;;;5050208;28;20033;-61
2022/11/10 02:03:26;;;;;;;6.05;3.67;;;11.50;99.90;;;;;;5051490;28;20033;-63
2022/11/10 02:06:14;;;;;;;9.48;3.50;;;11.50;99.90;;;;;;5030897;28;20036;-62
2022/11/10 02:09:00;;;;;;;8.70;3.92;;;11.50;99.90;;;;;;5023171;28;20119;-64
2022/11/10 02:11:50;;;;;;;8.68;3.47;;;11.50;99.90;;;;;;5017912;28;20486;-62
2022/11/10 02:14:36;;;;;;;8.75;3.60;;;11.40;99.90;;;;;;5050688;28;20061;-62
2022/11/10 02:17:22;;;;;;;12.80;3.97;;;11.40;99.90;;;;;;5022959;28;20055;-61
2022/11/10 02:20:13;;;;;;;9.75;3.33;;;11.30;99.90;;;;;;5050569;28;20084;-61
2022/11/10 02:23:14;;;;;;;9.90;3.63;;;11.30;99.90;;;;;;5049934;28;20128;-63
2022/11/10 02:26:05;;;;;;;8.68;3.80;;;11.10;99.90;;;;;;5050335;28;20094;-62
2022/11/10 02:28:51;;;;;;;10.43;4.05;;;11.00;99.90;;;;;;5050371;28;20393;-63
2022/11/10 02:31:39;;;;;;;5.53;3.10;;;11.00;99.90;;;;;;5049265;28;20048;-61
2022/11/10 02:34:25;;;;;;;7.47;3.70;;;11.00;99.90;;;;;;5035733;28;20017;-63
2022/11/10 02:37:11;;;;;;;8.70;3.70;;;11.00;99.90;;;;;;5036417;28;20029;-62
2022/11/10 02:39:57;;;;;;;13.00;3.97;;;11.10;99.90;;;;;;5050152;28;20108;-62
2022/11/10 02:42:43;;;;;;;7.68;3.70;;;11.10;99.90;;;;;;5036484;28;20174;-63
2022/11/10 02:45:29;;;;;;;9.35;3.58;;;11.10;99.90;;;;;;5049561;28;20227;-62
2022/11/10 02:48:15;;;;;;;10.63;3.50;;;11.00;99.90;;;;;;5035771;28;20036;-62
2022/11/10 02:51:01;;;;;;;8.40;3.15;;;11.10;99.90;;;;;;5035122;28;20405;-61
2022/11/10 02:53:48;;;;;;;7.68;3.53;;;11.10;99.90;;;;;;5049891;28;20660;-62
2022/11/10 02:56:35;;;;;;;8.20;3.75;;;11.00;99.90;;;;;;5036856;28;20048;-62
2022/11/10 02:59:20;;;;;;;4.55;3.08;;;11.10;99.90;;;;;;5022506;28;20017;-62
2022/11/10 03:02:06;;;;;;;10.35;3.70;;;11.20;99.90;;;;;;5034880;28;20061;-61
2022/11/10 03:04:52;;;;;;;9.77;3.60;;;11.20;99.90;;;;;;5049592;28;20041;-62
2022/11/10 03:07:38;;;;;;;6.10;3.47;;;11.10;99.90;;;;;;5047969;28;20087;-65
2022/11/10 03:10:26;;;;;;;8.50;3.78;;;11.10;99.90;;;;;;5051158;28;20079;-62
2022/11/10 03:13:11;;;;;;;8.32;3.42;;;11.10;99.90;;;;;;5033934;28;20078;-62
2022/11/10 03:15:57;;;;;;;7.90;3.40;;;11.00;99.90;;;;;;5049175;28;20029;-63
2022/11/10 03:18:43;;;;;;;6.18;3.30;;;11.00;99.90;;;;;;5034998;28;20029;-63
2022/11/10 03:21:29;;;;;;;8.88;4.10;;;11.10;99.90;;;;;;5049810;28;20566;-63
2022/11/10 03:24:15;;;;;;;8.23;4.07;;;11.00;99.90;;;;;;5035375;28;20060;-63
2022/11/10 03:27:01;;;;;;;7.05;3.78;;;10.90;99.90;;;;;;5035724;28;20623;-62
2022/11/10 03:29:47;;;;;;;7.13;3.20;;;10.90;99.90;;;;;;5049348;28;20049;-63
2022/11/10 03:32:33;;;;;;;6.70;3.88;;;11.00;99.90;;;;;;5049069;28;20053;-62
2022/11/10 03:35:19;;;;;;;7.40;3.20;;;10.90;99.90;;;;;;5048815;28;20035;-62
2022/11/10 03:38:05;;;;;;;9.05;3.95;;;10.80;99.90;;;;;;5016176;28;20037;-62
2022/11/10 03:40:51;;;;;;;8.68;3.90;;;10.90;99.90;;;;;;5029286;28;20030;-62
2022/11/10 03:43:36;;;;;;;6.68;3.60;;;11.00;99.90;;;;;;5048677;28;20056;-62
2022/11/10 03:46:22;;;;;;;6.53;3.70;;;10.90;99.90;;;;;;5048134;28;20523;-62
2022/11/10 03:49:08;;;;;;;10.25;4.15;;;10.80;99.90;;;;;;5034703;28;20040;-61
2022/11/10 03:51:54;;;;;;;10.43;4.30;;;10.80;99.90;;;;;;5012572;28;20526;-63
2022/11/10 03:54:40;;;;;;;10.90;4.20;;;10.80;99.90;;;;;;5030401;28;20108;-62
2022/11/10 03:57:26;;;;;;;9.60;3.92;;;10.80;99.90;;;;;;5035322;28;20116;-62
2022/11/10 04:00:13;;;;;;;5.65;3.75;;;10.70;99.90;;;;;;5049082;28;20032;-63
2022/11/10 04:02:59;;;;;;;12.02;4.32;;;10.80;99.90;;;;;;5049267;28;20025;-60
2022/11/10 04:08:59;;;;;;;12.68;3.95;;;10.70;99.90;;;;;;5049634;28;20017;-62
2022/11/10 04:18:19;;;;;;;6.88;3.88;;;10.70;99.90;;;;;;5049429;28;20029;-63
2022/11/10 04:21:05;;;;;;;7.88;3.50;;;10.70;99.90;;;;;;5033397;28;20036;-63
2022/11/10 04:23:51;;;;;;;7.35;4.28;;;10.60;99.90;;;;;;5033482;28;20531;-61
2022/11/10 04:26:37;;;;;;;9.13;3.83;;;10.60;99.90;;;;;;5048095;28;20109;-61
2022/11/10 04:29:23;;;;;;;6.13;3.72;;;10.60;99.90;;;;;;5049454;28;20090;-60
2022/11/10 04:32:09;;;;;;;7.38;3.30;;;10.60;99.90;;;;;;5048207;28;20082;-62
2022/11/10 04:34:55;;;;;;;9.00;3.40;;;10.50;99.90;;;;;;5048477;28;20024;-61
2022/11/10 04:37:41;;;;;;;11.50;4.25;;;10.50;99.90;;;;;;5035097;28;20512;-60
2022/11/10 04:40:27;;;;;;;10.68;3.85;;;10.50;99.90;;;;;;5034581;28;20048;-61
2022/11/10 04:43:15;;;;;;;12.27;4.20;;;10.50;99.90;;;;;;5034748;28;20029;-61
2022/11/10 04:46:02;;;;;;;10.00;4.00;;;10.50;99.90;;;;;;5048222;28;20599;-62
2022/11/10 04:48:49;;;;;;;9.55;3.42;;;10.50;99.90;;;;;;5048412;28;20116;-59
2022/11/10 04:51:37;;;;;;;5.65;3.28;;;10.50;99.90;;;;;;5028492;28;20029;-62
2022/11/10 04:54:23;;;;;;;5.97;3.30;;;10.40;99.90;;;;;;5032307;28;20173;-60
2022/11/10 04:57:09;;;;;;;7.78;3.33;;;10.50;99.90;;;;;;5048445;28;20037;-65
2022/11/10 04:59:55;;;;;;;9.90;3.65;;;10.50;99.90;;;;;;5047330;28;20092;-62
2022/11/10 05:02:41;;;;;;;12.45;3.88;;;10.50;99.90;;;;;;5048273;28;20418;-60
2022/11/10 05:05:27;;;;;;;8.20;3.88;;;10.50;99.90;;;;;;5048027;28;20029;-59
2022/11/10 05:08:13;;;;;;;6.05;3.35;;;10.40;99.90;;;;;;5034133;28;20033;-63
2022/11/10 05:10:59;;;;;;;9.73;3.90;;;10.30;99.90;;;;;;5047138;28;20133;-62
2022/11/10 05:13:45;;;;;;;9.68;3.40;;;10.30;99.90;;;;;;5047809;28;20364;-60
2022/11/10 05:16:31;;;;;;;9.88;3.45;;;10.40;99.90;;;;;;5034583;28;20029;-63
2022/11/10 05:19:17;;;;;;;13.00;4.13;;;10.30;99.90;;;;;;5048341;28;20071;-60
2022/11/10 05:22:03;;;;;;;8.75;4.13;;;10.20;99.90;;;;;;5047849;28;20031;-60
2022/11/10 05:24:49;;;;;;;7.47;3.60;;;10.10;99.90;;;;;;5047364;28;20272;-59
2022/11/10 05:27:35;;;;;;;9.10;3.70;;;10.10;99.90;;;;;;5048241;28;20032;-59
2022/11/10 05:30:21;;;;;;;10.82;3.58;;;10.20;99.90;;;;;;5033387;28;20087;-57
2022/11/10 05:33:07;;;;;;;10.38;3.88;;;10.20;99.90;;;;;;5046902;28;20508;-56
2022/11/10 05:35:53;;;;;;;7.82;4.30;;;10.10;99.90;;;;;;5048148;28;20035;-59
2022/11/10 05:38:39;;;;;;;11.25;4.20;;;10.10;99.90;;;;;;5048466;28;20038;-58
2022/11/10 05:41:25;;;;;;;8.75;3.40;;;10.10;99.90;;;;;;5037045;28;20516;-60
2022/11/10 05:44:11;;;;;;;10.10;4.70;;;10.00;99.90;;;;;;5052423;28;20041;-58
2022/11/10 05:46:57;;;;;;;12.55;4.00;;;10.20;99.90;;;;;;5039654;28;20128;-61
2022/11/10 05:49:43;;;;;;;10.55;3.80;;;10.10;99.90;;;;;;5006540;28;20109;-64
2022/11/10 05:52:29;;;;;;;6.82;3.60;;;10.10;99.90;;;;;;5043900;28;20031;-63
2022/11/10 05:55:17;;;;;;;11.32;3.53;;;10.10;99.90;;;;;;5042494;28;20029;-64
2022/11/10 05:58:03;;;;;;;10.55;3.60;;;10.00;99.90;;;;;;5036263;28;20383;-63
2022/11/10 06:00:49;;;;;;;8.38;3.92;;;10.10;99.90;;;;;;5044180;28;20021;-62
2022/11/10 06:03:35;;;;;;;7.78;3.70;;;10.10;99.90;;;;;;5025438;28;20025;-63
2022/11/10 06:06:21;;;;;;;8.25;3.67;;;10.00;99.90;;;;;;5041831;28;20139;-63
2022/11/10 06:09:07;;;;;;;11.82;4.35;;;10.00;99.90;;;;;;5050204;28;20120;-61
2022/11/10 06:11:53;;;;;;;10.32;4.13;;;10.00;99.90;;;;;;5050043;28;20036;-62
2022/11/10 06:14:39;;;;;;;8.13;4.05;;;9.90;99.90;;;;;;5036273;28;20025;-63
2022/11/10 06:17:25;;;;;;;7.30;4.13;;;9.80;99.90;;;;;;5050539;28;20032;-64
2022/11/10 06:20:13;;;;;;;12.75;4.32;;;9.80;99.90;;;;;;5050395;28;20083;-59
2022/11/10 06:23:10;;;;;;;8.35;4.68;;;9.80;99.90;;;;;;5050851;28;20033;-64
2022/11/10 06:25:56;;;;;;;11.93;4.50;;;9.70;99.90;;;;;;5048251;28;20025;-62
2022/11/10 06:28:42;;;;;;;10.57;4.85;;;9.70;99.90;;;;;;5025229;28;20041;-61
2022/11/10 06:31:32;;;;;;;9.23;3.78;;;9.70;99.90;;;;;;5043278;28;20006;-63
2022/11/10 06:34:18;;;;;;;10.93;4.60;;;9.60;99.90;;;;;;5042027;28;20367;-66
2022/11/10 06:37:04;;;;;;;10.65;4.70;;;9.60;99.90;;;;;;5050211;28;20061;-62
2022/11/10 06:39:50;;;;;;;8.20;3.88;;;9.50;99.90;;;;;;5042765;28;20525;-61
2022/11/10 06:42:36;;;;;;;7.85;4.03;;;9.50;99.90;;;;;;5026494;28;20043;-62
2022/11/10 06:45:23;;;;;;;11.85;4.53;;;9.60;99.90;;;;;;5048829;28;20037;-57
2022/11/10 06:48:12;;;;;;;10.93;4.57;;;9.60;99.90;;;;;;5029026;28;20032;-60
2022/11/10 06:51:01;;;;;;;10.13;4.55;;;9.60;99.90;;;;;;5037627;28;20654;-58
2022/11/10 06:53:47;;;;;;;9.82;4.45;;;9.60;99.90;;;;;;5040508;28;20033;-57
2022/11/10 06:56:33;;;;;;;17.40;4.40;;;9.60;99.90;;;;;;5017595;28;20053;-54
2022/11/10 06:59:19;;;;;;;10.23;4.20;;;9.70;99.90;;;;;;5024946;28;20043;-60
2022/11/10 07:02:15;;;;;;;10.00;4.40;;;9.70;99.90;;;;;;5044761;28;20048;-61
2022/11/10 07:05:00;;;;;;;8.35;4.20;;;9.60;99.90;;;;;;5042556;28;20036;-58
2022/11/10 07:07:46;;;;;;;8.30;4.18;;;9.80;99.90;;;;;;5026618;28;20041;-59
2022/11/10 07:10:33;;;;;;;9.55;3.80;;;9.80;99.90;;;;;;5039388;28;20026;-58
2022/11/10 07:13:20;;;;;;;9.05;3.92;;;9.80;99.90;;;;;;5029187;28;20028;-58
2022/11/10 07:16:07;;;;;;;13.60;4.82;;;9.90;99.90;;;;;;5050681;28;20040;-56
2022/11/10 07:18:53;;;;;;;9.32;4.28;;;10.00;99.90;;;;;;5038262;28;20101;-57
2022/11/10 07:21:41;;;;;;;12.20;4.85;;;10.10;99.90;;;;;;5034697;28;20039;-56
2022/11/10 07:24:29;;;;;;;7.70;4.25;;;10.20;99.90;;;;;;5033824;28;20032;-60
2022/11/10 07:27:15;;;;;;;16.20;4.30;;;10.20;99.90;;;;;;5047878;28;20527;-58
2022/11/10 07:30:01;;;;;;;9.13;5.40;;;10.30;99.90;;;;;;5035980;28;19913;-59
2022/11/10 07:32:46;;;;;;;8.50;3.97;;;10.30;99.90;;;;;;5030576;28;20094;-58
2022/11/10 07:35:33;;;;;;;12.52;4.00;;;10.40;99.90;;;;;;5033252;28;20079;-57
2022/11/10 07:38:19;;;;;;;12.23;5.03;;;10.40;99.90;;;;;;5049956;28;20032;-59
2022/11/10 07:41:05;;;;;;;12.02;4.55;;;10.50;99.90;;;;;;5048299;28;20032;-59
2022/11/10 07:43:51;;;;;;;10.30;4.45;;;10.40;99.90;;;;;;5035903;28;20028;-58
2022/11/10 07:46:37;;;;;;;13.68;4.38;;;10.50;99.90;;;;;;5015532;28;20049;-60
2022/11/10 07:49:23;;;;;;;14.88;4.35;;;10.60;99.90;;;;;;5029966;28;20101;-56
2022/11/10 07:52:08;;;;;;;18.30;5.32;;;10.70;99.90;;;;;;5035362;28;20078;-61
2022/11/10 07:54:54;;;;;;;9.45;4.05;;;10.70;99.90;;;;;;5048576;28;20681;-55
2022/11/10 07:57:40;;;;;;;5.93;3.70;;;10.90;99.90;;;;;;5034136;28;20040;-59
2022/11/10 08:00:27;;;;;;;9.50;3.90;;;11.00;99.90;;;;;;5053918;28;20041;-62
2022/11/10 08:03:17;;;;;;;18.08;4.85;;;11.00;99.90;;;;;;5033255;28;20079;-61
2022/11/10 08:06:03;;;;;;;7.97;3.92;;;11.10;99.90;;;;;;5029867;28;20121;-55
2022/11/10 08:08:48;;;;;;;10.23;4.35;;;11.10;99.90;;;;;;5030396;28;20037;-59
2022/11/10 08:11:34;;;;;;;12.57;4.90;;;11.10;99.90;;;;;;5034928;28;20025;-61
2022/11/10 08:14:21;;;;;;;13.65;4.55;;;11.10;99.90;;;;;;5048589;28;20029;-60
2022/11/10 08:17:07;;;;;;;7.38;3.75;;;11.10;99.90;;;;;;5047793;28;20092;-59
2022/11/10 08:19:53;;;;;;;10.68;3.95;;;11.20;99.90;;;;;;5048528;28;20397;-60
2022/11/10 08:22:39;;;;;;;10.45;3.72;;;11.30;99.90;;;;;;5048660;28;20025;-59
2022/11/10 08:25:26;;;;;;;4.97;3.50;;;11.30;99.90;;;;;;5049116;28;20029;-60
2022/11/10 08:28:15;;;;;;;7.75;3.50;;;11.30;99.90;;;;;;5013919;28;20474;-62
2022/11/10 08:31:02;;;;;;;11.35;3.95;;;11.30;99.90;;;;;;5028047;28;20037;-62
2022/11/10 08:33:48;;;;;;;13.63;4.25;;;11.40;99.90;;;;;;5034235;28;20040;-61
2022/11/10 08:36:36;;;;;;;9.13;4.05;;;11.50;99.90;;;;;;5048075;28;20072;-62
2022/11/10 08:39:22;;;;;;;15.68;5.88;;;11.60;99.90;;;;;;5048573;28;20119;-63
2022/11/10 08:42:08;;;;;;;16.83;5.82;;;11.70;99.90;;;;;;5048649;28;20033;-61
2022/11/10 08:44:54;;;;;;;12.05;4.50;;;11.60;99.90;;;;;;5026703;28;20033;-60
2022/11/10 08:47:40;;;;;;;7.95;3.80;;;11.80;99.90;;;;;;5034437;28;20025;-59
2022/11/10 08:50:27;;;;;;;9.93;4.13;;;11.90;99.90;;;;;;5035486;28;20052;-59
2022/11/10 08:53:19;;;;;;;11.25;4.70;;;12.00;99.90;;;;;;5048541;28;20025;-60
2022/11/10 08:56:05;;;;;;;11.07;4.18;;;12.10;99.90;;;;;;5048299;28;20036;-60
2022/11/10 08:58:53;;;;;;;9.20;4.05;;;12.30;99.90;;;;;;5035077;28;20083;-61
2022/11/10 09:01:38;;;;;;;11.05;4.22;;;12.40;99.90;;;;;;5034986;28;20037;-62
2022/11/10 09:04:24;;;;;;;10.05;4.57;;;12.30;99.90;;;;;;5033884;28;20037;-61
2022/11/10 09:07:10;;;;;;;11.45;4.03;;;12.30;99.90;;;;;;5048844;28;20029;-59
2022/11/10 09:09:56;;;;;;;10.05;4.15;;;12.30;99.90;;;;;;5048992;28;20066;-62
2022/11/10 09:12:42;;;;;;;10.48;3.83;;;12.10;99.90;;;;;;5034953;28;20098;-60
2022/11/10 09:15:30;;;;;;;10.38;4.60;;;12.10;99.90;;;;;;5040505;28;20032;-61
2022/11/10 09:18:16;;;;;;;14.02;4.85;;;12.20;99.90;;;;;;5038731;28;20029;-58
2022/11/10 09:21:10;;;;;;;12.38;4.47;;;12.10;99.90;;;;;;5052443;28;20108;-57
2022/11/10 09:23:56;;;;;;;10.75;4.57;;;12.20;99.90;;;;;;5052443;28;20040;-58
2022/11/10 09:26:44;;;;;;;9.82;3.83;;;12.10;99.90;;;;;;5037635;28;20029;-60
2022/11/10 09:29:30;;;;;;;15.25;5.72;;;12.20;99.90;;;;;;5039297;28;20039;-60
2022/11/10 09:32:18;;;;;;;10.05;4.88;;;12.30;99.90;;;;;;5052101;28;20033;-59
2022/11/10 09:35:05;;;;;;;9.57;4.72;;;12.30;99.90;;;;;;5023245;28;20026;-58
2022/11/10 09:37:51;;;;;;;11.30;4.53;;;12.40;99.90;;;;;;5037209;28;20033;-59
2022/11/10 09:41:01;;;;;;;11.27;4.65;;;12.60;99.90;;;;;;5038453;28;20103;-57
2022/11/10 09:44:21;;;;;;;8.52;4.93;;;12.60;99.90;;;;;;5051783;28;20029;-59
2022/11/10 09:47:18;;;;;;;8.68;4.07;;;12.60;99.90;;;;;;5033629;28;20067;-61
2022/11/10 09:50:06;;;;;;;12.20;4.15;;;12.70;99.90;;;;;;5031312;28;20026;-59
2022/11/10 09:52:53;;;;;;;9.88;4.30;;;12.70;99.90;;;;;;5044876;28;20112;-57
2022/11/10 09:55:47;;;;;;;12.70;4.50;;;12.80;99.90;;;;;;5051694;28;20024;-57
2022/11/10 09:58:44;;;;;;;11.82;4.60;;;12.80;99.90;;;;;;5051215;28;20124;-58
2022/11/10 10:01:33;;;;;;;12.00;4.72;;;12.90;99.90;;;;;;5051464;28;20041;-57
2022/11/10 10:04:44;;;;;;;9.48;4.55;;;12.90;99.90;;;;;;5051734;28;20029;-59
2022/11/10 10:08:07;;;;;;;9.93;4.35;;;12.80;99.90;;;;;;5051071;28;20025;-60
2022/11/10 10:11:18;;;;;;;14.95;5.13;;;12.90;99.90;;;;;;5051805;28;20389;-58
2022/11/10 10:14:08;;;;;;;9.23;4.55;;;13.00;99.90;;;;;;5050658;28;20029;-59
2022/11/10 10:17:20;;;;;;;10.68;4.28;;;13.00;99.90;;;;;;5037673;28;20017;-60
2022/11/10 10:20:53;;;;;;;15.38;5.05;;;13.00;99.90;;;;;;5049073;28;20025;-60
2022/11/10 10:23:50;;;;;;;11.55;4.53;;;13.10;99.90;;;;;;5010262;28;20077;-59
2022/11/10 10:26:44;;;;;;;10.88;4.13;;;13.20;99.90;;;;;;5050508;28;20025;-60
2022/11/10 10:29:38;;;;;;;11.27;4.53;;;13.10;99.90;;;;;;5051285;28;20505;-59
2022/11/10 10:32:25;;;;;;;13.30;4.45;;;13.20;99.90;;;;;;5050365;28;20525;-60
2022/11/10 10:35:16;;;;;;;13.48;4.35;;;13.20;99.90;;;;;;5050057;28;20474;-60
2022/11/10 10:38:08;;;;;;;7.35;4.45;;;13.30;99.90;;;;;;5050933;28;20065;-59
2022/11/10 10:41:08;;;;;;;14.00;4.97;;;13.30;99.90;;;;;;5030962;28;20042;-57
2022/11/10 10:43:57;;;;;;;10.45;4.07;;;13.20;99.90;;;;;;5046129;28;20068;-58
2022/11/10 10:46:49;;;;;;;13.07;4.18;;;13.20;99.90;;;;;;5051458;28;20028;-59
2022/11/10 10:49:35;;;;;;;9.95;4.25;;;13.30;99.90;;;;;;5039594;28;20033;-62
2022/11/10 10:52:23;;;;;;;11.65;4.60;;;13.40;99.90;;;;;;5039869;28;20021;-60
2022/11/10 10:55:11;;;;;;;13.15;5.20;;;13.40;99.90;;;;;;5037536;28;20489;-60
2022/11/10 10:58:17;;;;;;;11.38;4.10;;;13.40;99.90;;;;;;5035487;28;20036;-59
2022/11/10 11:01:15;;;;;;;12.98;4.95;;;13.40;99.90;;;;;;5050189;28;20091;-59
2022/11/10 11:04:24;;;;;;;9.50;4.35;;;13.50;99.90;;;;;;5031835;28;20042;-61
2022/11/10 11:07:24;;;;;;;11.85;4.70;;;13.60;99.90;;;;;;5031157;28;20033;-58
2022/11/10 11:10:21;;;;;;;10.20;4.68;;;13.70;99.90;;;;;;5017860;28;20513;-60
2022/11/10 11:13:23;;;;;;;11.55;4.47;;;13.70;99.90;;;;;;5045817;28;20029;-58
2022/11/10 11:16:11;;;;;;;13.18;4.72;;;13.80;99.90;;;;;;5049285;28;20017;-59
2022/11/10 11:18:57;;;;;;;11.52;4.20;;;13.80;99.90;;;;;;5039295;28;20113;-58
2022/11/10 11:22:04;;;;;;;12.02;4.43;;;13.80;99.90;;;;;;5034237;28;20041;-57
2022/11/10 11:25:15;;;;;;;9.38;4.38;;;13.70;99.90;;;;;;5049736;28;20028;-60
2022/11/10 11:28:09;;;;;;;9.10;4.10;;;13.70;99.90;;;;;;5049250;28;20029;-58
2022/11/10 11:31:03;;;;;;;12.95;5.03;;;13.70;99.90;;;;;;5049509;28;20519;-58
2022/11/10 11:34:16;;;;;;;17.73;5.47;;;13.80;99.90;;;;;;5035783;28;20025;-59
2022/11/10 11:37:03;;;;;;;10.93;4.90;;;13.80;99.90;;;;;;5049640;28;20039;-60
2022/11/10 11:40:11;;;;;;;10.02;4.25;;;13.70;99.90;;;;;;5061214;28;20055;-61
2022/11/10 11:43:21;;;;;;;9.77;4.00;;;13.60;99.90;;;;;;5062695;28;20028;-57
2022/11/10 11:46:27;;;;;;;11.68;3.97;;;13.60;99.90;;;;;;5047961;28;20033;-58
2022/11/10 11:49:42;;;;;;;11.50;4.82;;;13.80;99.90;;;;;;5041433;28;20485;-57
2022/11/10 11:52:39;;;;;;;10.40;4.60;;;13.80;99.90;;;;;;5045956;28;20185;-57
2022/11/10 11:55:47;;;;;;;11.30;4.93;;;13.90;99.90;;;;;;5048901;28;20086;-60
2022/11/10 11:58:43;;;;;;;11.48;4.78;;;14.00;99.90;;;;;;5013723;28;20368;-58
2022/11/10 12:02:01;;;;;;;9.57;4.35;;;14.00;99.90;;;;;;5036079;28;20127;-56
2022/11/10 12:05:09;;;;;;;8.38;4.20;;;14.10;99.90;;;;;;4978130;28;20159;-58
2022/11/10 12:08:22;;;;;;;12.18;4.07;;;14.10;99.90;;;;;;5047522;28;20029;-59
2022/11/10 12:11:50;;;;;;;11.23;4.22;;;14.10;99.90;;;;;;5048600;28;20033;-56
2022/11/10 12:15:02;;;;;;;9.75;4.22;;;14.10;99.90;;;;;;5043839;28;20574;-58
2022/11/10 12:18:16;;;;;;;17.10;5.05;;;14.20;99.70;;;;;;5048585;28;20036;-58
2022/11/10 12:21:20;;;;;;;13.48;3.88;;;14.20;99.50;;;;;;5049853;28;20485;-58
2022/11/10 12:24:06;;;;;;;13.95;4.47;;;14.20;99.40;;;;;;5028072;28;20025;-59
2022/11/10 12:26:59;;;;;;;11.00;4.15;;;14.10;99.30;;;;;;5034322;28;20496;-57
2022/11/10 12:29:57;;;;;;;11.32;4.35;;;14.10;99.40;;;;;;5033915;28;20025;-58
2022/11/10 12:32:51;;;;;;;11.85;4.53;;;14.20;99.40;;;;;;5049156;28;20032;-58
2022/11/10 12:35:41;;;;;;;8.35;3.92;;;14.30;99.70;;;;;;5047894;28;20504;-58
2022/11/10 12:38:36;;;;;;;9.85;3.75;;;14.40;99.70;;;;;;5048360;28;20493;-60
2022/11/10 12:41:23;;;;;;;9.85;3.83;;;14.60;99.30;;;;;;5047751;28;20025;-56
2022/11/10 12:44:35;;;;;;;9.35;4.03;;;14.80;98.90;;;;;;5047845;28;20091;-59
2022/11/10 12:47:24;;;;;;;11.90;3.83;;;14.80;98.80;;;;;;5047953;28;20087;-60
2022/11/10 12:50:44;;;;;;;9.25;3.90;;;14.70;98.70;;;;;;5048028;28;20035;-56
2022/11/10 12:53:37;;;;;;;13.73;5.60;;;14.80;98.80;;;;;;5052586;28;20032;-58
2022/11/10 12:56:32;;;;;;;9.75;4.55;;;14.90;99.00;;;;;;5052211;28;20025;-60
2022/11/10 12:59:18;;;;;;;12.95;5.07;;;15.00;99.20;;;;;;5052238;28;20087;-54
2022/11/10 13:02:35;;;;;;;15.13;3.95;;;15.00;98.60;;;;;;5052291;28;20463;-56
2022/11/10 13:05:26;;;;;;;11.60;4.10;;;15.10;98.50;;;;;;5051568;28;20027;-57
2022/11/10 13:08:26;;;;;;;11.15;4.57;;;15.20;98.40;;;;;;5038788;28;20772;-56
2022/11/10 13:11:12;;;;;;;13.38;5.38;;;15.20;98.50;;;;;;5051603;28;20385;-57
2022/11/10 13:14:04;;;;;;;13.38;4.10;;;15.20;98.50;;;;;;5051851;28;20021;-66
2022/11/10 13:16:54;;;;;;;9.75;4.55;;;15.20;98.50;;;;;;5033037;28;20030;-59
2022/11/10 13:19:40;;;;;;;12.43;4.35;;;15.20;98.20;;;;;;5037099;28;20643;-54
2022/11/10 13:22:41;;;;;;;13.30;5.28;;;15.10;98.00;;;;;;5052893;28;20056;-59
2022/11/10 13:25:36;;;;;;;16.13;4.88;;;15.10;98.20;;;;;;5051162;28;20025;-55
2022/11/10 13:28:47;;;;;;;6.50;3.72;;;15.10;98.20;;;;;;5052509;28;20033;-55
2022/11/10 13:31:38;;;;;;;10.35;4.15;;;15.20;97.80;;;;;;5037704;28;20028;-62
2022/11/10 13:34:30;;;;;;;10.70;4.10;;;15.20;97.80;;;;;;5051040;28;20064;-57
2022/11/10 13:37:34;;;;;;;8.40;3.78;;;15.20;98.00;;;;;;5051289;28;20405;-58
2022/11/10 13:40:23;;;;;;;9.27;4.00;;;15.40;97.90;;;;;;5051946;28;20021;-56
2022/11/10 13:43:17;;;;;;;10.85;3.95;;;15.60;97.50;;;;;;5051552;28;20017;-57
2022/11/10 13:46:04;;;;;;;11.70;3.97;;;15.50;97.60;;;;;;5037719;28;20037;-60
2022/11/10 13:48:53;;;;;;;9.63;3.60;;;15.60;97.50;;;;;;5035211;28;20463;-59
2022/11/10 13:51:53;;;;;;;9.20;3.65;;;15.80;97.00;;;;;;5051458;28;20021;-62
2022/11/10 13:54:59;;;;;;;8.43;3.67;;;15.70;97.00;;;;;;5052530;28;20185;-55
2022/11/10 13:58:23;;;;;;;;;;;15.80;97.10;;;;;;5036353;28;20029;-58
2022/11/10 14:01:18;;;;;;;8.27;3.67;;;16.00;96.40;;;;;;4990075;28;19906;-56
2022/11/10 14:04:04;;;;;;;11.93;3.88;;;16.30;96.00;;;;;;4988717;28;20034;-58
2022/11/10 14:06:53;;;;;;;11.07;4.53;;;16.60;95.80;;;;;;5044563;28;20327;-52
2022/11/10 14:09:43;;;;;;;8.80;3.60;;;16.70;95.10;;;;;;5044931;28;20067;-54
2022/11/10 14:12:52;;;;;;;10.00;3.90;;;16.40;95.50;;;;;;5050258;28;20408;-58
2022/11/10 14:15:41;;;;;;;15.38;4.82;;;16.40;95.50;;;;;;5036782;28;20056;-56
2022/11/10 14:18:39;;;;;;;10.82;3.60;;;16.50;95.20;;;;;;5050208;28;20066;-55
2022/11/10 14:21:42;;;;;;;12.32;4.05;;;16.50;95.30;;;;;;5021621;28;20036;-58
2022/11/10 14:24:34;;;;;;;10.98;4.50;;;16.70;94.90;;;;;;5050191;28;20121;-55
2022/11/10 14:27:26;;;;;;;9.63;4.00;;;16.60;95.30;;;;;;5038513;28;20036;-56
2022/11/10 14:30:23;;;;;;;14.02;4.13;;;16.60;95.10;;;;;;5036301;28;20056;-61
2022/11/10 14:33:11;;;;;;;11.68;3.45;;;16.10;95.70;;;;;;5030888;28;20036;-59
2022/11/10 14:36:04;;;;;;;7.00;3.55;;;15.70;96.40;;;;;;5038003;28;20032;-57
2022/11/10 14:38:52;;;;;;;10.30;3.58;;;15.30;96.90;;;;;;5037355;28;20025;-50
2022/11/10 14:41:48;;;;;;;10.73;3.85;;;15.00;97.60;;;;;;5050275;28;20017;-58
2022/11/10 14:44:34;;;;;;;10.68;4.68;;;14.90;98.00;;;;;;5049208;28;20168;-55
2022/11/10 14:47:31;;;;;;;14.10;4.63;;;14.70;98.00;;;;;;5023446;28;20029;-56
2022/11/10 14:50:24;;;;;;;12.70;4.35;;;14.60;98.10;;;;;;5050658;28;20120;-62
2022/11/10 14:53:32;;;;;;;18.30;4.40;;;14.40;98.30;;;;;;5036671;28;20029;-58
2022/11/10 14:56:35;;;;;;;8.50;3.45;;;14.40;98.40;;;;;;5050513;28;20060;-60
2022/11/10 14:59:24;;;;;;;10.68;4.53;;;14.30;98.60;;;;;;5049501;28;20097;-60